sensor_id;sensor_type;location;lat;lon;timestamp;pressure;altitude;pressure_sealevel;temperature;humidity
30724;BME280;17473;52.286;20.930;2023-12-20T00:00:31;99446.69;;;6.11;100.00
30724;BME280;17473;52.286;20.930;2023-12-20T00:02:58;99442.63;;;6.20;100.00
30724;BME280;17473;52.286;20.930;2023-12-20T00:05:26;99441.00;;;6.23;100.00
30724;BME280;17473;52.286;20.930;2023-12-20T00:07:53;99442.63;;;6.20;100.00
30724;BME280;17473;52.286;20.930;2023-12-20T00:10:20;99437.75;;;6.05;100.00
30724;BME280;17473;52.286;20.930;2023-12-20T00:12:47;99435.75;;;6.23;100.00
30724;BME280;17473;52.286;20.930;2023-12-20T00:15:14;99426.22;;;6.25;100.00
30724;BME280;17473;52.286;20.930;2023-12-20T00:17:41;99424.44;;;6.24;100.00
30724;BME280;17473;52.286;20.930;2023-12-20T00:20:09;99428.34;;;6.36;100.00
30724;BME280;17473;52.286;20.930;2023-12-20T00:22:37;99421.81;;;6.24;100.00
30724;BME280;17473;52.286;20.930;2023-12-20T00:25:04;99426.03;;;6.19;100.00
30724;BME280;17473;52.286;20.930;2023-12-20T00:27:31;99433.72;;;6.15;100.00
30724;BME280;17473;52.286;20.930;2023-12-20T00:29:58;99422.31;;;6.14;100.00
30724;BME280;17473;52.286;20.930;2023-12-20T00:32:26;99422.22;;;6.11;100.00
30724;BME280;17473;52.286;20.930;2023-12-20T00:34:53;99425.84;;;6.15;100.00
30724;BME280;17473;52.286;20.930;2023-12-20T00:37:20;99414.19;;;6.31;100.00
30724;BME280;17473;52.286;20.930;2023-12-20T00:39:48;99417.66;;;6.30;100.00
30724;BME280;17473;52.286;20.930;2023-12-20T00:42:15;99408.63;;;6.21;100.00
30724;BME280;17473;52.286;20.930;2023-12-20T00:44:42;99413.53;;;6.36;100.00
30724;BME280;17473;52.286;20.930;2023-12-20T00:47:09;99405.69;;;6.38;100.00
30724;BME280;17473;52.286;20.930;2023-12-20T00:49:36;99400.69;;;6.20;100.00
30724;BME280;17473;52.286;20.930;2023-12-20T00:52:04;99402.88;;;6.32;100.00
30724;BME280;17473;52.286;20.930;2023-12-20T00:54:31;99398.56;;;6.34;100.00
30724;BME280;17473;52.286;20.930;2023-12-20T00:56:58;99400.75;;;6.21;100.00
30724;BME280;17473;52.286;20.930;2023-12-20T00:59:26;99401.84;;;6.28;100.00
30724;BME280;17473;52.286;20.930;2023-12-20T01:01:53;99399.22;;;6.28;100.00
30724;BME280;17473;52.286;20.930;2023-12-20T01:04:20;99399.06;;;6.23;100.00
30724;BME280;17473;52.286;20.930;2023-12-20T01:06:48;99400.13;;;6.29;100.00
30724;BME280;17473;52.286;20.930;2023-12-20T01:09:15;99407.16;;;6.30;100.00
30724;BME280;17473;52.286;20.930;2023-12-20T01:11:43;99401.81;;;6.26;100.00
30724;BME280;17473;52.286;20.930;2023-12-20T01:14:10;99393.22;;;6.31;100.00
30724;BME280;17473;52.286;20.930;2023-12-20T01:16:37;99395.44;;;6.20;100.00
30724;BME280;17473;52.286;20.930;2023-12-20T01:19:04;99392.25;;;6.29;100.00
30724;BME280;17473;52.286;20.930;2023-12-20T01:21:31;99395.94;;;6.34;100.00
30724;BME280;17473;52.286;20.930;2023-12-20T01:23:59;99396.22;;;6.41;100.00
30724;BME280;17473;52.286;20.930;2023-12-20T01:26:26;99388.13;;;6.35;100.00
30724;BME280;17473;52.286;20.930;2023-12-20T01:28:53;99380.59;;;6.45;100.00
30724;BME280;17473;52.286;20.930;2023-12-20T01:31:20;99389.84;;;6.35;100.00
30724;BME280;17473;52.286;20.930;2023-12-20T01:33:47;99387.19;;;6.33;100.00
30724;BME280;17473;52.286;20.930;2023-12-20T01:36:14;99373.25;;;6.34;100.00
30724;BME280;17473;52.286;20.930;2023-12-20T01:38:41;99374.94;;;6.34;100.00
30724;BME280;17473;52.286;20.930;2023-12-20T01:41:09;99377.53;;;6.32;100.00
30724;BME280;17473;52.286;20.930;2023-12-20T01:43:36;99379.44;;;6.36;100.00
30724;BME280;17473;52.286;20.930;2023-12-20T01:46:17;99390.22;;;6.46;100.00
30724;BME280;17473;52.286;20.930;2023-12-20T01:48:45;99376.84;;;6.38;100.00
30724;BME280;17473;52.286;20.930;2023-12-20T01:51:12;99369.81;;;6.37;100.00
30724;BME280;17473;52.286;20.930;2023-12-20T01:53:41;99369.50;;;6.53;100.00
30724;BME280;17473;52.286;20.930;2023-12-20T01:56:09;99375.38;;;6.46;100.00
30724;BME280;17473;52.286;20.930;2023-12-20T01:58:43;99360.69;;;6.51;100.00
30724;BME280;17473;52.286;20.930;2023-12-20T02:01:11;99369.00;;;6.38;100.00
30724;BME280;17473;52.286;20.930;2023-12-20T02:03:42;99369.66;;;6.32;100.00
30724;BME280;17473;52.286;20.930;2023-12-20T02:06:10;99362.53;;;6.28;100.00
30724;BME280;17473;52.286;20.930;2023-12-20T02:08:37;99364.69;;;6.40;100.00
30724;BME280;17473;52.286;20.930;2023-12-20T02:11:05;99359.13;;;6.56;100.00
30724;BME280;17473;52.286;20.930;2023-12-20T02:13:32;99359.53;;;6.43;100.00
30724;BME280;17473;52.286;20.930;2023-12-20T02:15:59;99357.75;;;6.42;100.00
30724;BME280;17473;52.286;20.930;2023-12-20T02:18:27;99351.75;;;6.45;100.00
30724;BME280;17473;52.286;20.930;2023-12-20T02:20:54;99355.88;;;6.38;100.00
30724;BME280;17473;52.286;20.930;2023-12-20T02:23:22;99357.16;;;6.49;100.00
30724;BME280;17473;52.286;20.930;2023-12-20T02:25:49;99342.84;;;6.41;100.00
30724;BME280;17473;52.286;20.930;2023-12-20T02:28:17;99346.66;;;6.49;100.00
30724;BME280;17473;52.286;20.930;2023-12-20T02:30:44;99347.16;;;6.65;100.00
30724;BME280;17473;52.286;20.930;2023-12-20T02:33:12;99334.22;;;6.71;100.00
30724;BME280;17473;52.286;20.930;2023-12-20T02:35:41;99325.31;;;6.93;100.00
30724;BME280;17473;52.286;20.930;2023-12-20T02:38:08;99332.88;;;6.84;100.00
30724;BME280;17473;52.286;20.930;2023-12-20T02:40:35;99332.56;;;6.73;100.00
30724;BME280;17473;52.286;20.930;2023-12-20T02:43:02;99319.00;;;6.59;100.00
30724;BME280;17473;52.286;20.930;2023-12-20T02:45:29;99323.69;;;6.69;100.00
30724;BME280;17473;52.286;20.930;2023-12-20T02:47:57;99336.56;;;6.62;100.00
30724;BME280;17473;52.286;20.930;2023-12-20T02:50:24;99326.13;;;6.63;100.00
30724;BME280;17473;52.286;20.930;2023-12-20T02:52:51;99317.50;;;6.67;100.00
30724;BME280;17473;52.286;20.930;2023-12-20T02:55:18;99315.53;;;6.60;100.00
30724;BME280;17473;52.286;20.930;2023-12-20T02:57:45;99319.03;;;6.61;100.00
30724;BME280;17473;52.286;20.930;2023-12-20T03:00:13;99325.03;;;6.56;100.00
30724;BME280;17473;52.286;20.930;2023-12-20T03:02:41;99323.28;;;6.57;100.00
30724;BME280;17473;52.286;20.930;2023-12-20T03:05:08;99315.41;;;6.57;100.00
30724;BME280;17473;52.286;20.930;2023-12-20T03:07:37;99312.75;;;6.55;100.00
30724;BME280;17473;52.286;20.930;2023-12-20T03:10:05;99316.25;;;6.56;100.00
30724;BME280;17473;52.286;20.930;2023-12-20T03:12:46;99312.91;;;6.60;100.00
30724;BME280;17473;52.286;20.930;2023-12-20T03:15:13;99314.44;;;6.53;100.00
30724;BME280;17473;52.286;20.930;2023-12-20T03:17:40;99311.31;;;6.93;100.00
30724;BME280;17473;52.286;20.930;2023-12-20T03:20:08;99299.13;;;6.95;100.00
30724;BME280;17473;52.286;20.930;2023-12-20T03:22:35;99315.47;;;6.86;100.00
30724;BME280;17473;52.286;20.930;2023-12-20T03:25:02;99328.97;;;6.71;100.00
30724;BME280;17473;52.286;20.930;2023-12-20T03:27:30;99314.91;;;6.69;100.00
30724;BME280;17473;52.286;20.930;2023-12-20T03:29:57;99313.06;;;6.65;100.00
30724;BME280;17473;52.286;20.930;2023-12-20T03:32:24;99317.66;;;6.72;100.00
30724;BME280;17473;52.286;20.930;2023-12-20T03:34:51;99296.63;;;6.70;100.00
30724;BME280;17473;52.286;20.930;2023-12-20T03:37:19;99317.81;;;6.77;100.00
30724;BME280;17473;52.286;20.930;2023-12-20T03:39:46;99304.44;;;6.69;100.00
30724;BME280;17473;52.286;20.930;2023-12-20T03:42:13;99291.81;;;6.57;100.00
30724;BME280;17473;52.286;20.930;2023-12-20T03:44:40;99298.84;;;6.58;100.00
30724;BME280;17473;52.286;20.930;2023-12-20T03:47:08;99297.00;;;6.55;100.00
30724;BME280;17473;52.286;20.930;2023-12-20T03:49:36;99298.84;;;6.58;100.00
30724;BME280;17473;52.286;20.930;2023-12-20T03:52:05;99301.63;;;6.63;100.00
30724;BME280;17473;52.286;20.930;2023-12-20T03:54:34;99306.84;;;6.63;100.00
30724;BME280;17473;52.286;20.930;2023-12-20T03:57:02;99311.31;;;6.65;100.00
30724;BME280;17473;52.286;20.930;2023-12-20T03:59:29;99306.84;;;6.63;100.00
30724;BME280;17473;52.286;20.930;2023-12-20T04:01:56;99287.84;;;6.70;100.00
30724;BME280;17473;52.286;20.930;2023-12-20T04:04:23;99291.56;;;6.77;100.00
30724;BME280;17473;52.286;20.930;2023-12-20T04:06:50;99301.72;;;6.66;100.00
30724;BME280;17473;52.286;20.930;2023-12-20T04:09:18;99304.72;;;6.78;100.00
30724;BME280;17473;52.286;20.930;2023-12-20T04:11:45;99298.78;;;6.84;100.00
30724;BME280;17473;52.286;20.930;2023-12-20T04:14:12;99296.31;;;6.88;100.00
30724;BME280;17473;52.286;20.930;2023-12-20T04:16:39;99291.22;;;6.66;100.00
30724;BME280;17473;52.286;20.930;2023-12-20T04:19:09;99298.69;;;6.81;100.00
30724;BME280;17473;52.286;20.930;2023-12-20T04:21:36;99299.94;;;6.65;100.00
30724;BME280;17473;52.286;20.930;2023-12-20T04:24:03;99304.22;;;6.63;100.00
30724;BME280;17473;52.286;20.930;2023-12-20T04:26:30;99293.44;;;6.53;100.00
30724;BME280;17473;52.286;20.930;2023-12-20T04:28:57;99289.16;;;6.55;100.00
30724;BME280;17473;52.286;20.930;2023-12-20T04:31:24;99301.75;;;6.67;100.00
30724;BME280;17473;52.286;20.930;2023-12-20T04:33:52;99293.25;;;6.74;100.00
30724;BME280;17473;52.286;20.930;2023-12-20T04:36:19;99288.06;;;6.76;100.00
30724;BME280;17473;52.286;20.930;2023-12-20T04:38:46;99293.63;;;6.60;100.00
30724;BME280;17473;52.286;20.930;2023-12-20T04:41:13;99303.41;;;6.64;100.00
30724;BME280;17473;52.286;20.930;2023-12-20T04:43:42;99300.09;;;6.69;100.00
30724;BME280;17473;52.286;20.930;2023-12-20T04:46:10;99296.97;;;6.54;100.00
30724;BME280;17473;52.286;20.930;2023-12-20T04:48:37;99295.81;;;6.46;100.00
30724;BME280;17473;52.286;20.930;2023-12-20T04:51:04;99299.44;;;6.49;100.00
30724;BME280;17473;52.286;20.930;2023-12-20T04:53:31;99296.19;;;6.56;100.00
30724;BME280;17473;52.286;20.930;2023-12-20T04:55:58;99302.22;;;6.54;100.00
30724;BME280;17473;52.286;20.930;2023-12-20T04:58:26;99302.44;;;6.62;100.00
30724;BME280;17473;52.286;20.930;2023-12-20T05:00:53;99298.81;;;6.56;100.00
30724;BME280;17473;52.286;20.930;2023-12-20T05:03:20;99295.28;;;6.56;100.00
30724;BME280;17473;52.286;20.930;2023-12-20T05:05:47;99287.91;;;6.44;100.00
30724;BME280;17473;52.286;20.930;2023-12-20T05:08:15;99282.38;;;6.62;100.00
30724;BME280;17473;52.286;20.930;2023-12-20T05:10:42;99288.84;;;6.73;100.00
30724;BME280;17473;52.286;20.930;2023-12-20T05:13:09;99286.97;;;6.69;100.00
30724;BME280;17473;52.286;20.930;2023-12-20T05:15:36;99280.28;;;6.52;100.00
30724;BME280;17473;52.286;20.930;2023-12-20T05:18:04;99276.03;;;6.55;100.00
30724;BME280;17473;52.286;20.930;2023-12-20T05:20:31;99271.97;;;6.65;100.00
30724;BME280;17473;52.286;20.930;2023-12-20T05:22:59;99280.72;;;6.38;100.00
30724;BME280;17473;52.286;20.930;2023-12-20T05:25:26;99278.34;;;6.46;100.00
30724;BME280;17473;52.286;20.930;2023-12-20T05:27:53;99281.66;;;6.40;100.00
30724;BME280;17473;52.286;20.930;2023-12-20T05:30:20;99281.94;;;6.48;100.00
30724;BME280;17473;52.286;20.930;2023-12-20T05:32:47;99277.72;;;6.53;100.00
30724;BME280;17473;52.286;20.930;2023-12-20T05:35:15;99271.31;;;6.45;100.00
30724;BME280;17473;52.286;20.930;2023-12-20T05:37:43;99268.66;;;6.44;100.00
30724;BME280;17473;52.286;20.930;2023-12-20T05:40:10;99278.09;;;6.38;100.00
30724;BME280;17473;52.286;20.930;2023-12-20T05:42:38;99267.75;;;6.43;100.00
30724;BME280;17473;52.286;20.930;2023-12-20T05:45:05;99271.97;;;6.38;100.00
30724;BME280;17473;52.286;20.930;2023-12-20T05:47:32;99270.22;;;6.38;100.00
30724;BME280;17473;52.286;20.930;2023-12-20T05:50:00;99269.31;;;6.36;100.00
30724;BME280;17473;52.286;20.930;2023-12-20T05:52:27;99267.19;;;6.52;100.00
30724;BME280;17473;52.286;20.930;2023-12-20T05:54:54;99260.56;;;6.37;100.00
30724;BME280;17473;52.286;20.930;2023-12-20T05:57:22;99256.31;;;6.41;100.00
30724;BME280;17473;52.286;20.930;2023-12-20T05:59:50;99263.31;;;6.40;100.00
30724;BME280;17473;52.286;20.930;2023-12-20T06:02:17;99265.13;;;6.43;100.00
30724;BME280;17473;52.286;20.930;2023-12-20T06:04:44;99258.28;;;6.21;100.00
30724;BME280;17473;52.286;20.930;2023-12-20T06:07:13;99266.56;;;6.33;100.00
30724;BME280;17473;52.286;20.930;2023-12-20T06:09:41;99270.50;;;6.46;100.00
30724;BME280;17473;52.286;20.930;2023-12-20T06:12:08;99270.19;;;6.37;100.00
30724;BME280;17473;52.286;20.930;2023-12-20T06:14:35;99270.88;;;6.31;100.00
30724;BME280;17473;52.286;20.930;2023-12-20T06:17:03;99271.31;;;6.45;100.00
30724;BME280;17473;52.286;20.930;2023-12-20T06:19:30;99277.22;;;6.38;100.00
30724;BME280;17473;52.286;20.930;2023-12-20T06:21:57;99272.69;;;6.34;100.00
30724;BME280;17473;52.286;20.930;2023-12-20T06:24:25;99275.59;;;6.41;100.00
30724;BME280;17473;52.286;20.930;2023-12-20T06:26:55;99276.56;;;6.45;100.00
30724;BME280;17473;52.286;20.930;2023-12-20T06:29:23;99279.22;;;6.47;100.00
30724;BME280;17473;52.286;20.930;2023-12-20T06:31:50;99277.22;;;6.38;100.00
30724;BME280;17473;52.286;20.930;2023-12-20T06:34:17;99269.09;;;6.30;100.00
30724;BME280;17473;52.286;20.930;2023-12-20T06:36:44;99277.41;;;6.44;100.00
30724;BME280;17473;52.286;20.930;2023-12-20T06:39:12;99275.25;;;6.31;100.00
30724;BME280;17473;52.286;20.930;2023-12-20T06:41:39;99272.34;;;6.50;100.00
30724;BME280;17473;52.286;20.930;2023-12-20T06:44:07;99280.03;;;6.44;100.00
30724;BME280;17473;52.286;20.930;2023-12-20T06:46:34;99276.94;;;6.30;100.00
30724;BME280;17473;52.286;20.930;2023-12-20T06:49:01;99277.59;;;6.23;100.00
30724;BME280;17473;52.286;20.930;2023-12-20T06:51:28;99282.94;;;6.26;100.00
30724;BME280;17473;52.286;20.930;2023-12-20T06:53:57;99275.38;;;6.35;100.00
30724;BME280;17473;52.286;20.930;2023-12-20T06:56:24;99285.31;;;6.46;100.00
30724;BME280;17473;52.286;20.930;2023-12-20T06:58:51;99281.63;;;6.39;100.00
30724;BME280;17473;52.286;20.930;2023-12-20T07:01:19;99279.53;;;6.29;100.00
30724;BME280;17473;52.286;20.930;2023-12-20T07:03:46;99270.34;;;6.41;100.00
30724;BME280;17473;52.286;20.930;2023-12-20T07:06:13;99265.97;;;6.42;100.00
30724;BME280;17473;52.286;20.930;2023-12-20T07:08:43;99266.63;;;6.62;100.00
30724;BME280;17473;52.286;20.930;2023-12-20T07:11:10;99272.31;;;6.49;100.00
30724;BME280;17473;52.286;20.930;2023-12-20T07:13:37;99268.56;;;6.40;100.00
30724;BME280;17473;52.286;20.930;2023-12-20T07:16:05;99273.66;;;6.36;100.00
30724;BME280;17473;52.286;20.930;2023-12-20T07:18:33;99274.06;;;6.48;100.00
30724;BME280;17473;52.286;20.930;2023-12-20T07:21:00;99275.78;;;6.48;100.00
30724;BME280;17473;52.286;20.930;2023-12-20T07:23:27;99284.28;;;6.40;100.00
30724;BME280;17473;52.286;20.930;2023-12-20T07:25:54;99286.34;;;6.49;100.00
30724;BME280;17473;52.286;20.930;2023-12-20T07:28:21;99283.72;;;6.49;100.00
30724;BME280;17473;52.286;20.930;2023-12-20T07:30:49;99287.91;;;6.44;100.00
30724;BME280;17473;52.286;20.930;2023-12-20T07:33:16;99280.88;;;6.43;100.00
30724;BME280;17473;52.286;20.930;2023-12-20T07:35:43;99284.78;;;6.56;100.00
30724;BME280;17473;52.286;20.930;2023-12-20T07:38:12;99281.81;;;6.72;100.00
30724;BME280;17473;52.286;20.930;2023-12-20T07:40:39;99274.31;;;6.30;100.00
30724;BME280;17473;52.286;20.930;2023-12-20T07:43:06;99270.50;;;6.46;100.00
30724;BME280;17473;52.286;20.930;2023-12-20T07:45:33;99284.84;;;6.57;100.00
30724;BME280;17473;52.286;20.930;2023-12-20T07:48:00;99275.03;;;6.52;100.00
30724;BME280;17473;52.286;20.930;2023-12-20T07:50:28;99283.59;;;6.73;100.00
30724;BME280;17473;52.286;20.930;2023-12-20T07:52:55;99280.22;;;6.50;100.00
30724;BME280;17473;52.286;20.930;2023-12-20T07:55:22;99276.69;;;6.48;100.00
30724;BME280;17473;52.286;20.930;2023-12-20T07:57:49;99276.69;;;6.48;100.00
30724;BME280;17473;52.286;20.930;2023-12-20T08:00:18;99275.78;;;6.48;100.00
30724;BME280;17473;52.286;20.930;2023-12-20T08:02:45;99268.16;;;6.55;100.00
30724;BME280;17473;52.286;20.930;2023-12-20T08:05:12;99269.13;;;6.57;100.00
30724;BME280;17473;52.286;20.930;2023-12-20T08:07:42;99268.06;;;6.52;100.00
30724;BME280;17473;52.286;20.930;2023-12-20T08:10:10;99271.38;;;6.47;100.00
30724;BME280;17473;52.286;20.930;2023-12-20T08:12:37;99271.94;;;6.36;100.00
30724;BME280;17473;52.286;20.930;2023-12-20T08:15:05;99274.78;;;6.44;100.00
30724;BME280;17473;52.286;20.930;2023-12-20T08:17:32;99272.47;;;6.53;100.00
30724;BME280;17473;52.286;20.930;2023-12-20T08:19:59;99276.75;;;6.51;100.00
30724;BME280;17473;52.286;20.930;2023-12-20T08:22:27;99272.75;;;6.63;100.00
30724;BME280;17473;52.286;20.930;2023-12-20T08:24:54;99265.38;;;6.51;100.00
30724;BME280;17473;52.286;20.930;2023-12-20T08:27:21;99264.06;;;6.64;100.00
30724;BME280;17473;52.286;20.930;2023-12-20T08:29:49;99262.13;;;6.58;100.00
30724;BME280;17473;52.286;20.930;2023-12-20T08:32:17;99263.75;;;6.54;100.00
30724;BME280;17473;52.286;20.930;2023-12-20T08:34:44;99264.44;;;6.49;100.00
30724;BME280;17473;52.286;20.930;2023-12-20T08:37:12;99263.88;;;6.57;100.00
30724;BME280;17473;52.286;20.930;2023-12-20T08:39:39;99259.50;;;6.58;100.00
30724;BME280;17473;52.286;20.930;2023-12-20T08:42:10;99261.28;;;6.59;100.00
30724;BME280;17473;52.286;20.930;2023-12-20T08:44:37;99256.44;;;6.44;100.00
30724;BME280;17473;52.286;20.930;2023-12-20T08:47:05;99255.41;;;6.39;100.00
30724;BME280;17473;52.286;20.930;2023-12-20T08:49:32;99258.94;;;6.41;100.00
30724;BME280;17473;52.286;20.930;2023-12-20T08:51:59;99254.72;;;6.45;100.00
30724;BME280;17473;52.286;20.930;2023-12-20T08:54:26;99257.41;;;6.48;100.00
30724;BME280;17473;52.286;20.930;2023-12-20T08:56:54;99255.44;;;6.40;100.00
30724;BME280;17473;52.286;20.930;2023-12-20T08:59:21;99257.34;;;6.45;100.00
30724;BME280;17473;52.286;20.930;2023-12-20T09:01:48;99256.69;;;6.52;100.00
30724;BME280;17473;52.286;20.930;2023-12-20T09:04:21;99252.28;;;6.51;100.00
30724;BME280;17473;52.286;20.930;2023-12-20T09:06:48;99252.81;;;6.40;100.00
30724;BME280;17473;52.286;20.930;2023-12-20T09:09:15;99244.81;;;6.36;100.00
30724;BME280;17473;52.286;20.930;2023-12-20T09:11:42;99251.06;;;6.41;100.00
30724;BME280;17473;52.286;20.930;2023-12-20T09:14:10;99240.47;;;6.36;100.00
30724;BME280;17473;52.286;20.930;2023-12-20T09:16:37;99242.22;;;6.37;100.00
30724;BME280;17473;52.286;20.930;2023-12-20T09:19:04;99234.19;;;6.33;100.00
30724;BME280;17473;52.286;20.930;2023-12-20T09:21:31;99236.97;;;6.37;100.00
30724;BME280;17473;52.286;20.930;2023-12-20T09:23:58;99229.69;;;6.56;100.00
30724;BME280;17473;52.286;20.930;2023-12-20T09:26:25;99234.75;;;6.50;100.00
30724;BME280;17473;52.286;20.930;2023-12-20T09:28:52;99227.19;;;6.59;100.00
30724;BME280;17473;52.286;20.930;2023-12-20T09:31:19;99230.09;;;6.41;100.00
30724;BME280;17473;52.286;20.930;2023-12-20T09:33:47;99222.16;;;6.38;100.00
30724;BME280;17473;52.286;20.930;2023-12-20T09:36:14;99218.06;;;6.48;100.00
30724;BME280;17473;52.286;20.930;2023-12-20T09:38:41;99222.22;;;6.41;100.00
30724;BME280;17473;52.286;20.930;2023-12-20T09:41:11;99221.38;;;6.42;100.00
30724;BME280;17473;52.286;20.930;2023-12-20T09:43:38;99216.78;;;6.62;100.00
30724;BME280;17473;52.286;20.930;2023-12-20T09:46:07;99217.19;;;6.47;100.00
30724;BME280;17473;52.286;20.930;2023-12-20T09:48:35;99222.69;;;6.28;100.00
30724;BME280;17473;52.286;20.930;2023-12-20T09:51:03;99213.81;;;6.51;100.00
30724;BME280;17473;52.286;20.930;2023-12-20T09:53:31;99204.09;;;6.47;100.00
30724;BME280;17473;52.286;20.930;2023-12-20T09:56:00;99213.09;;;6.55;100.00
30724;BME280;17473;52.286;20.930;2023-12-20T09:58:28;99207.97;;;6.60;100.00
30724;BME280;17473;52.286;20.930;2023-12-20T10:00:56;99202.34;;;6.48;100.00
30724;BME280;17473;52.286;20.930;2023-12-20T10:03:25;99203.63;;;6.61;100.00
30724;BME280;17473;52.286;20.930;2023-12-20T10:05:57;99200.78;;;6.53;100.00
30724;BME280;17473;52.286;20.930;2023-12-20T10:08:27;99204.22;;;6.52;100.00
30724;BME280;17473;52.286;20.930;2023-12-20T10:10:57;99210.22;;;6.48;100.00
30724;BME280;17473;52.286;20.930;2023-12-20T10:13:29;99204.38;;;6.56;100.00
30724;BME280;17473;52.286;20.930;2023-12-20T10:15:56;99205.09;;;6.52;100.00
30724;BME280;17473;52.286;20.930;2023-12-20T10:18:24;99194.97;;;6.63;100.00
30724;BME280;17473;52.286;20.930;2023-12-20T10:21:06;99198.63;;;6.68;100.00
30724;BME280;17473;52.286;20.930;2023-12-20T10:23:33;99197.19;;;6.51;100.00
30724;BME280;17473;52.286;20.930;2023-12-20T10:26:01;99194.03;;;6.61;100.00
30724;BME280;17473;52.286;20.930;2023-12-20T10:28:33;99181.53;;;6.83;100.00
30724;BME280;17473;52.286;20.930;2023-12-20T10:31:01;99187.09;;;6.63;100.00
30724;BME280;17473;52.286;20.930;2023-12-20T10:33:31;99181.09;;;6.67;100.00
30724;BME280;17473;52.286;20.930;2023-12-20T10:36:02;99177.22;;;6.54;100.00
30724;BME280;17473;52.286;20.930;2023-12-20T10:38:30;99176.50;;;6.60;100.00
30724;BME280;17473;52.286;20.930;2023-12-20T10:40:58;99163.22;;;6.54;100.00
30724;BME280;17473;52.286;20.930;2023-12-20T10:43:30;99172.09;;;6.59;100.00
30724;BME280;17473;52.286;20.930;2023-12-20T10:46:01;99182.91;;;6.70;100.00
30724;BME280;17473;52.286;20.930;2023-12-20T10:48:31;99188.22;;;6.71;100.00
30724;BME280;17473;52.286;20.930;2023-12-20T10:50:59;99188.69;;;6.58;100.00
30724;BME280;17473;52.286;20.930;2023-12-20T10:53:28;99186.56;;;6.46;100.00
30724;BME280;17473;52.286;20.930;2023-12-20T10:55:56;99185.25;;;6.61;100.00
30724;BME280;17473;52.286;20.930;2023-12-20T10:58:29;99171.63;;;6.72;100.00
30724;BME280;17473;52.286;20.930;2023-12-20T11:01:01;99176.50;;;6.60;100.00
30724;BME280;17473;52.286;20.930;2023-12-20T11:03:35;99165.09;;;6.60;100.00
30724;BME280;17473;52.286;20.930;2023-12-20T11:06:15;99154.72;;;6.63;100.00
30724;BME280;17473;52.286;20.930;2023-12-20T11:09:22;99155.81;;;6.69;100.00
30724;BME280;17473;52.286;20.930;2023-12-20T11:12:04;99148.91;;;6.73;100.00
30724;BME280;17473;52.286;20.930;2023-12-20T11:14:51;99145.47;;;6.76;100.00
30724;BME280;17473;52.286;20.930;2023-12-20T11:17:19;99141.06;;;6.74;100.00
30724;BME280;17473;52.286;20.930;2023-12-20T11:22:31;99133.63;;;6.60;100.00
30724;BME280;17473;52.286;20.930;2023-12-20T11:25:11;99134.25;;;6.80;100.00
30724;BME280;17473;52.286;20.930;2023-12-20T11:27:42;99127.41;;;6.56;100.00
30724;BME280;17473;52.286;20.930;2023-12-20T11:30:12;99132.47;;;6.50;100.00
30724;BME280;17473;52.286;20.930;2023-12-20T11:32:41;99122.03;;;6.51;100.00
30724;BME280;17473;52.286;20.930;2023-12-20T11:37:38;99122.53;;;6.68;100.00
30724;BME280;17473;52.286;20.930;2023-12-20T11:40:18;99130.56;;;6.74;100.00
30724;BME280;17473;52.286;20.930;2023-12-20T11:42:50;99120.00;;;6.71;100.00
30724;BME280;17473;52.286;20.930;2023-12-20T11:45:24;99106.56;;;6.61;100.00
30724;BME280;17473;52.286;20.930;2023-12-20T11:47:56;99099.47;;;6.56;100.00
30724;BME280;17473;52.286;20.930;2023-12-20T11:50:25;99103.41;;;6.72;100.00
30724;BME280;17473;52.286;20.930;2023-12-20T11:52:54;99104.22;;;6.70;100.00
30724;BME280;17473;52.286;20.930;2023-12-20T11:55:23;99091.72;;;6.61;100.00
30724;BME280;17473;52.286;20.930;2023-12-20T11:57:53;99094.16;;;6.55;100.00
30724;BME280;17473;52.286;20.930;2023-12-20T12:00:21;99095.53;;;6.72;100.00
30724;BME280;17473;52.286;20.930;2023-12-20T12:02:58;99093.38;;;6.57;100.00
30724;BME280;17473;52.286;20.930;2023-12-20T12:05:25;99096.28;;;6.67;100.00
30724;BME280;17473;52.286;20.930;2023-12-20T12:07:53;99101.59;;;6.70;100.00
30724;BME280;17473;52.286;20.930;2023-12-20T12:10:20;99091.94;;;6.69;100.00
30724;BME280;17473;52.286;20.930;2023-12-20T12:12:47;99096.47;;;6.74;100.00
30724;BME280;17473;52.286;20.930;2023-12-20T12:15:15;99098.38;;;6.80;100.00
30724;BME280;17473;52.286;20.930;2023-12-20T12:17:42;99084.25;;;6.75;100.00
30724;BME280;17473;52.286;20.930;2023-12-20T12:20:10;99089.44;;;6.73;100.00
30724;BME280;17473;52.286;20.930;2023-12-20T12:22:37;99088.28;;;6.62;100.00
30724;BME280;17473;52.286;20.930;2023-12-20T12:25:12;99081.41;;;6.67;100.00
30724;BME280;17473;52.286;20.930;2023-12-20T12:27:41;99091.75;;;6.93;100.00
30724;BME280;17473;52.286;20.930;2023-12-20T12:30:10;99077.50;;;6.53;100.00
30724;BME280;17473;52.286;20.930;2023-12-20T12:32:38;99083.91;;;6.63;100.00
30724;BME280;17473;52.286;20.930;2023-12-20T12:35:07;99068.94;;;6.91;100.00
30724;BME280;17473;52.286;20.930;2023-12-20T12:37:39;99074.63;;;6.76;100.00
30724;BME280;17473;52.286;20.930;2023-12-20T12:40:12;99075.44;;;6.73;100.00
30724;BME280;17473;52.286;20.930;2023-12-20T12:42:41;99071.34;;;6.52;100.00
30724;BME280;17473;52.286;20.930;2023-12-20T12:45:10;99081.78;;;6.49;100.00
30724;BME280;17473;52.286;20.930;2023-12-20T12:47:38;99069.69;;;6.54;100.00
30724;BME280;17473;52.286;20.930;2023-12-20T12:50:06;99073.78;;;6.45;100.00
30724;BME280;17473;52.286;20.930;2023-12-20T12:52:33;99082.09;;;6.31;100.00
30724;BME280;17473;52.286;20.930;2023-12-20T12:55:02;99079.97;;;6.18;100.00
30724;BME280;17473;52.286;20.930;2023-12-20T12:57:32;99073.81;;;6.17;100.00
30724;BME280;17473;52.286;20.930;2023-12-20T13:00:01;99069.13;;;6.36;100.00